KLCH/LCH METAR and TAF weather

Enter ICAO airport designator
Station Type Date Time Source
KLCH METAR 2019/10/23 01:53 UTC NOAA

KLCH 230153Z AUTO 00000KT 10SM CLR 14/11 A3014 RMK AO2 SLP215 T01440106


Station Type Date Time Source
KLCH Decoded METAR 2019/10/23 01:53 UTC NOAA

LAKE CHARLES REGIONAL AIRPORT , LA, United States (KLCH) 30-12N 093-23W 3M
Oct 22, 2019 - 09:53 PM EDT / 2019.10.23 0153 UTC
Wind: Calm:0
Visibility: 10 mile(s):0
Sky conditions: clear
Temperature: 57.9 F (14.4 C)
Dew Point: 51.1 F (10.6 C)
Relative Humidity: 77%
Pressure (altimeter): 30.14 in. Hg (1020 hPa)
ob: KLCH 230153Z AUTO 00000KT 10SM CLR 14/11 A3014 RMK AO2 SLP215 T01440106
cycle: 2

Station Type Date Time Source
KLCH TAF 2019/10/22 20:18 UTC NOAA

TAF
AMD KLCH 222016Z 2220/2318 34011G18KT P6SM SKC
FM230100 VRB04KT P6SM SKC
FM231500 09009KT P6SM SKC

Example: see airport list